createdAt,value
2018-08-30T00:02:14.168Z,92.58
2018-08-30T00:04:44.404Z,92.45
2018-08-30T00:07:14.234Z,92.46
2018-08-30T00:09:44.433Z,92.85
2018-08-30T00:12:12.914Z,92.66
2018-08-30T00:14:42.124Z,93.16
2018-08-30T00:17:10.597Z,92.79
2018-08-30T00:19:39.857Z,92.03
2018-08-30T00:22:08.598Z,91.96
2018-08-30T00:24:37.760Z,91.33
2018-08-30T00:27:08.692Z,91.42
2018-08-30T00:29:38.361Z,91.48
2018-08-30T00:32:07.384Z,91.57
2018-08-30T00:34:36.211Z,92.26
2018-08-30T00:37:05.514Z,92.02
2018-08-30T00:39:34.212Z,92.53
2018-08-30T00:42:02.933Z,92.59
2018-08-30T00:44:31.394Z,92.29
2018-08-30T00:47:00.436Z,90.92
2018-08-30T00:49:29.685Z,88.63
2018-08-30T00:51:58.875Z,88.41
2018-08-30T00:54:28.145Z,88.43
2018-08-30T00:56:56.632Z,87.81
2018-08-30T00:59:25.426Z,87.45
2018-08-30T01:01:54.885Z,86.94
2018-08-30T01:04:23.365Z,87.12
2018-08-30T01:06:52.206Z,87.91
2018-08-30T01:09:21.149Z,88.45
2018-08-30T01:11:50.949Z,87.84
2018-08-30T01:14:20.042Z,88.51
2018-08-30T01:16:48.905Z,88.22
2018-08-30T01:19:18.264Z,88.27
2018-08-30T01:21:47.053Z,88.77
2018-08-30T01:24:15.557Z,89.38
2018-08-30T01:26:44.555Z,89.03
2018-08-30T01:29:13.251Z,89.03
2018-08-30T01:31:42.154Z,90.06
2018-08-30T01:34:13.173Z,91.27
2018-08-30T01:36:44.331Z,90.96
2018-08-30T01:39:13.490Z,91.06
2018-08-30T01:41:44.074Z,90.81
2018-08-30T01:44:13.772Z,90.50
2018-08-30T01:46:43.041Z,90.81
2018-08-30T01:49:11.988Z,89.53
2018-08-30T01:51:41.257Z,89.11
2018-08-30T01:54:09.792Z,89.95
2018-08-30T01:56:38.278Z,89.25
2018-08-30T01:59:07.191Z,89.18
2018-08-30T02:01:36.357Z,88.79
2018-08-30T02:04:05.315Z,88.71
2018-08-30T02:06:34.103Z,87.28
2018-08-30T02:09:02.653Z,87.61
2018-08-30T02:11:31.105Z,88.16
2018-08-30T02:13:59.974Z,87.62
2018-08-30T02:16:28.733Z,87.59
2018-08-30T02:18:57.204Z,87.33
2018-08-30T02:21:25.697Z,86.42
2018-08-30T02:23:54.201Z,87.71
2018-08-30T02:26:22.909Z,88.23
2018-08-30T02:28:51.904Z,89.09
2018-08-30T02:31:20.329Z,88.82
2018-08-30T02:33:48.781Z,88.88
2018-08-30T02:36:17.221Z,88.40
2018-08-30T02:38:46.270Z,88.29
2018-08-30T02:41:14.720Z,88.82
2018-08-30T02:43:43.166Z,88.16
2018-08-30T02:46:12.188Z,88.11
2018-08-30T02:48:41.144Z,88.89
2018-08-30T02:51:10.638Z,88.42
2018-08-30T02:53:39.861Z,88.11
2018-08-30T02:56:09.035Z,88.35
2018-08-30T02:58:38.027Z,87.52
2018-08-30T03:01:06.852Z,87.01
2018-08-30T03:03:36.239Z,87.36
2018-08-30T03:06:04.753Z,86.80
2018-08-30T03:08:33.225Z,86.83
2018-08-30T03:11:02.207Z,86.73
2018-08-30T03:13:30.701Z,86.26
2018-08-30T03:15:59.664Z,85.72
2018-08-30T03:18:28.863Z,86.16
2018-08-30T03:20:57.703Z,85.88
2018-08-30T03:23:26.389Z,86.00
2018-08-30T03:25:54.950Z,85.98
2018-08-30T03:28:23.393Z,86.09
2018-08-30T03:30:52.392Z,86.40
2018-08-30T03:33:20.987Z,86.45
2018-08-30T03:35:50.228Z,86.34
2018-08-30T03:38:18.704Z,86.17
2018-08-30T03:40:47.752Z,86.50
2018-08-30T03:43:16.205Z,86.03
2018-08-30T03:45:45.060Z,85.93
2018-08-30T03:48:13.552Z,86.16
2018-08-30T03:50:42.251Z,85.57
2018-08-30T03:53:10.729Z,85.37
2018-08-30T03:55:39.535Z,85.29
2018-08-30T03:58:08.196Z,85.04
2018-08-30T04:00:36.914Z,85.42
2018-08-30T04:03:05.630Z,84.69
2018-08-30T04:05:35.036Z,85.60
2018-08-30T04:08:03.538Z,84.83
2018-08-30T04:10:32.022Z,84.51
2018-08-30T04:13:00.876Z,84.93
2018-08-30T04:15:29.335Z,83.98
2018-08-30T04:17:58.814Z,84.17
2018-08-30T04:20:27.505Z,84.45
2018-08-30T04:22:56.417Z,83.85
2018-08-30T04:25:25.794Z,84.25
2018-08-30T04:27:54.261Z,84.21
2018-08-30T04:30:23.157Z,83.93
2018-08-30T04:32:51.696Z,83.71
2018-08-30T04:35:20.172Z,84.00
2018-08-30T04:37:48.690Z,84.00
2018-08-30T04:40:17.161Z,83.57
2018-08-30T04:42:45.774Z,83.55
2018-08-30T04:45:14.363Z,83.60
2018-08-30T04:47:43.219Z,83.83
2018-08-30T04:50:12.676Z,83.81
2018-08-30T04:52:41.140Z,83.40
2018-08-30T04:55:10.017Z,83.82
2018-08-30T04:57:38.508Z,83.59
2018-08-30T05:00:07.064Z,83.56
2018-08-30T05:02:35.523Z,83.21
2018-08-30T05:05:04.374Z,83.59
2018-08-30T05:07:33.276Z,83.46
2018-08-30T05:10:02.223Z,83.33
2018-08-30T05:12:30.961Z,82.70
2018-08-30T05:14:59.649Z,82.54
2018-08-30T05:17:28.391Z,82.19
2018-08-30T05:19:56.944Z,82.09
2018-08-30T05:22:25.685Z,82.31
2018-08-30T05:24:54.357Z,82.36
2018-08-30T05:27:23.049Z,81.89
2018-08-30T05:29:51.782Z,81.83
2018-08-30T05:32:20.976Z,81.40
2018-08-30T05:34:49.407Z,81.84
2018-08-30T05:37:18.542Z,81.80
2018-08-30T05:39:47.708Z,81.82
2018-08-30T05:42:16.187Z,81.09
2018-08-30T05:44:44.668Z,81.38
2018-08-30T05:47:13.456Z,81.35
2018-08-30T05:49:41.902Z,81.33
2018-08-30T05:52:11.013Z,81.06
2018-08-30T05:54:39.809Z,80.69
2018-08-30T05:57:08.808Z,80.28
2018-08-30T05:59:37.257Z,80.43
2018-08-30T06:02:05.699Z,80.75
2018-08-30T06:04:34.184Z,79.50
2018-08-30T06:07:02.654Z,79.37
2018-08-30T06:09:31.132Z,79.44
2018-08-30T06:12:00.742Z,78.56
2018-08-30T06:14:29.542Z,78.98
2018-08-30T06:16:58.616Z,78.35
2018-08-30T06:19:27.748Z,78.47
2018-08-30T06:21:56.608Z,77.89
2018-08-30T06:24:25.098Z,78.44
2018-08-30T06:26:53.621Z,77.85
2018-08-30T06:29:22.973Z,78.24
2018-08-30T06:31:51.377Z,77.96
2018-08-30T06:34:20.184Z,77.68
2018-08-30T06:36:48.645Z,77.62
2018-08-30T06:39:17.905Z,76.96
2018-08-30T06:41:46.392Z,77.21
2018-08-30T06:44:15.349Z,77.03
2018-08-30T06:46:44.659Z,76.01
2018-08-30T06:49:13.529Z,76.68
2018-08-30T06:51:42.467Z,75.88
2018-08-30T06:54:11.254Z,75.13
2018-08-30T06:56:39.762Z,75.16
2018-08-30T06:59:08.600Z,75.58
2018-08-30T07:01:37.510Z,75.52
2018-08-30T07:04:07.206Z,74.77
2018-08-30T07:06:35.657Z,75.62
2018-08-30T07:09:07.299Z,74.39
2018-08-30T07:11:35.747Z,74.70
2018-08-30T07:14:04.517Z,73.55
2018-08-30T07:16:32.976Z,73.58
2018-08-30T07:19:02.712Z,73.19
2018-08-30T07:21:31.688Z,74.22
2018-08-30T07:24:00.203Z,74.16
2018-08-30T07:26:28.676Z,73.92
2018-08-30T07:28:57.402Z,74.39
2018-08-30T07:31:25.870Z,73.97
2018-08-30T07:33:54.736Z,73.67
2018-08-30T07:36:24.516Z,73.70
2018-08-30T07:38:53.029Z,73.85
2018-08-30T07:41:22.052Z,73.26
2018-08-30T07:43:51.075Z,74.18
2018-08-30T07:46:19.894Z,73.51
2018-08-30T07:48:48.761Z,73.14
2018-08-30T07:51:17.255Z,74.02
2018-08-30T07:53:46.082Z,74.79
2018-08-30T07:56:14.764Z,73.84
2018-08-30T07:58:43.249Z,73.86
2018-08-30T08:01:12.389Z,74.86
2018-08-30T08:03:41.139Z,74.66
2018-08-30T08:06:09.690Z,73.75
2018-08-30T08:08:38.143Z,74.45
2018-08-30T08:11:07.133Z,74.59
2018-08-30T08:13:35.635Z,74.11
2018-08-30T08:16:04.108Z,74.66
2018-08-30T08:18:33.241Z,74.12
2018-08-30T08:21:01.779Z,74.12
2018-08-30T08:23:30.410Z,74.63
2018-08-30T08:26:01.144Z,73.90
2018-08-30T08:28:30.450Z,74.43
2018-08-30T08:30:59.323Z,73.66
2018-08-30T08:33:28.813Z,73.71
2018-08-30T08:35:57.336Z,72.91
2018-08-30T08:38:26.210Z,72.66
2018-08-30T08:40:55.667Z,71.26
2018-08-30T08:43:24.914Z,71.14
2018-08-30T08:45:54.991Z,71.49
2018-08-30T08:48:23.488Z,70.73
2018-08-30T08:50:52.345Z,71.18
2018-08-30T08:53:21.103Z,71.67
2018-08-30T08:55:49.596Z,71.22
2018-08-30T08:58:18.064Z,71.64
2018-08-30T09:00:47.604Z,71.71
2018-08-30T09:03:16.333Z,70.47
2018-08-30T09:05:45.619Z,70.52
2018-08-30T09:08:15.351Z,68.89
2018-08-30T09:10:44.501Z,68.66
2018-08-30T09:13:13.356Z,68.01
2018-08-30T09:15:41.832Z,68.11
2018-08-30T09:18:10.295Z,68.44
2018-08-30T09:20:39.145Z,66.93
2018-08-30T09:23:07.670Z,67.55
2018-08-30T09:25:36.465Z,67.19
2018-08-30T09:28:05.378Z,67.94
2018-08-30T09:30:33.893Z,65.94
2018-08-30T09:33:02.745Z,65.11
2018-08-30T09:35:31.269Z,64.61
2018-08-30T09:38:00.172Z,65.42
2018-08-30T09:40:31.151Z,63.91
2018-08-30T09:43:00.096Z,63.38
2018-08-30T09:45:29.103Z,63.69
2018-08-30T09:47:58.147Z,63.27
2018-08-30T09:50:27.599Z,64.33
2018-08-30T09:52:56.053Z,63.34
2018-08-30T09:55:24.868Z,61.99
2018-08-30T09:57:53.669Z,61.90
2018-08-30T10:00:27.778Z,61.94
2018-08-30T10:02:56.253Z,60.72
2018-08-30T10:05:25.259Z,60.10
2018-08-30T10:07:54.557Z,61.99
2018-08-30T10:10:23.331Z,62.92
2018-08-30T10:12:52.250Z,63.76
2018-08-30T10:15:21.165Z,64.71
2018-08-30T10:17:49.735Z,65.07
2018-08-30T10:20:19.333Z,63.97
2018-08-30T10:22:48.200Z,64.06
2018-08-30T10:25:16.732Z,64.77
2018-08-30T10:27:45.539Z,64.40
2018-08-30T10:30:14.488Z,64.56
2018-08-30T10:32:43.256Z,64.73
2018-08-30T10:35:11.748Z,63.55
2018-08-30T10:37:40.504Z,64.30
2018-08-30T10:40:09.387Z,63.42
2018-08-30T10:42:38.552Z,62.95
2018-08-30T10:45:07.307Z,63.27
2018-08-30T10:47:36.154Z,62.30
2018-08-30T10:50:06.404Z,62.37
2018-08-30T10:52:35.500Z,62.74
2018-08-30T10:55:04.029Z,62.15
2018-08-30T10:57:32.521Z,60.41
2018-08-30T11:00:01.432Z,60.65
2018-08-30T11:02:30.270Z,59.13
2018-08-30T11:04:59.652Z,59.75
2018-08-30T11:07:28.118Z,59.60
2018-08-30T11:09:56.969Z,58.83
2018-08-30T11:12:25.783Z,58.33
2018-08-30T11:14:55.399Z,57.54
2018-08-30T11:17:23.907Z,56.30
2018-08-30T11:19:52.696Z,56.63
2018-08-30T11:22:21.527Z,56.77
2018-08-30T11:24:50.241Z,56.08
2018-08-30T11:27:19.346Z,54.70
2018-08-30T11:29:48.263Z,53.58
2018-08-30T11:32:17.128Z,51.97
2018-08-30T11:34:46.153Z,51.10
2018-08-30T11:37:16.054Z,49.65
2018-08-30T11:39:44.856Z,50.22
2018-08-30T11:42:13.776Z,49.39
2018-08-30T11:44:42.740Z,48.80
2018-08-30T11:47:11.242Z,49.65
2018-08-30T11:49:39.714Z,49.44
2018-08-30T11:52:08.424Z,50.71
2018-08-30T11:54:36.871Z,51.47
2018-08-30T11:57:05.404Z,51.39
2018-08-30T11:59:34.037Z,52.07
2018-08-30T12:02:02.571Z,52.29
2018-08-30T12:04:31.531Z,53.42
2018-08-30T12:07:01.399Z,55.14
2018-08-30T12:09:32.892Z,56.56
2018-08-30T12:12:02.156Z,57.63
2018-08-30T12:14:30.612Z,57.14
2018-08-30T12:16:59.073Z,56.97
2018-08-30T12:19:31.248Z,56.24
2018-08-30T12:21:59.726Z,56.29
2018-08-30T12:24:28.425Z,54.27
2018-08-30T12:26:56.984Z,53.24
2018-08-30T12:29:25.726Z,50.07
2018-08-30T12:31:54.213Z,50.36
2018-08-30T12:34:22.738Z,49.61
2018-08-30T12:36:51.206Z,49.25
2018-08-30T12:39:19.667Z,45.63
2018-08-30T12:41:48.162Z,44.19
2018-08-30T12:44:16.647Z,43.68
2018-08-30T12:46:45.294Z,43.08
2018-08-30T12:49:13.993Z,43.84
2018-08-30T12:51:43.036Z,46.67
2018-08-30T12:54:11.429Z,47.31
2018-08-30T12:56:39.929Z,46.29
2018-08-30T12:59:14.045Z,46.72
2018-08-30T13:01:42.931Z,47.22
2018-08-30T13:04:11.809Z,47.47
2018-08-30T13:06:50.496Z,46.55
2018-08-30T13:09:19.664Z,47.72
2018-08-30T13:11:48.625Z,47.78
2018-08-30T13:14:17.319Z,48.15
2018-08-30T13:16:45.805Z,48.61
2018-08-30T13:19:15.037Z,48.28
2018-08-30T13:21:44.014Z,48.07
2018-08-30T13:24:12.677Z,47.88
2018-08-30T13:26:41.602Z,47.90
2018-08-30T13:29:10.568Z,48.63
2018-08-30T13:31:38.918Z,48.71
2018-08-30T13:34:07.746Z,49.07
2018-08-30T13:36:36.548Z,49.41
2018-08-30T13:39:06.953Z,48.49
2018-08-30T13:41:35.428Z,48.19
2018-08-30T13:44:04.546Z,47.16
2018-08-30T13:46:32.923Z,47.96
2018-08-30T13:49:01.420Z,46.46
2018-08-30T13:51:30.416Z,46.10
2018-08-30T13:53:59.533Z,44.28
2018-08-30T13:56:28.467Z,44.09
2018-08-30T13:58:57.197Z,42.67
2018-08-30T14:01:25.663Z,42.04
2018-08-30T14:03:54.269Z,41.10
2018-08-30T14:06:22.823Z,40.19
2018-08-30T14:08:53.163Z,40.41
2018-08-30T14:11:21.763Z,41.36
2018-08-30T14:13:50.271Z,41.15
2018-08-30T14:16:18.792Z,39.85
2018-08-30T14:18:49.158Z,39.32
2018-08-30T14:21:18.525Z,39.80
2018-08-30T14:23:47.039Z,41.38
2018-08-30T14:26:15.502Z,42.13
2018-08-30T14:28:44.582Z,42.78
2018-08-30T14:31:14.276Z,43.02
2018-08-30T14:33:42.780Z,42.50
2018-08-30T14:36:11.240Z,42.14
2018-08-30T14:38:40.070Z,42.87
2018-08-30T14:41:08.672Z,42.55
2018-08-30T14:43:38.859Z,44.11
2018-08-30T14:46:07.722Z,45.21
2018-08-30T14:48:36.403Z,45.32
2018-08-30T14:51:05.726Z,45.23
2018-08-30T14:53:34.462Z,45.56
2018-08-30T14:56:03.006Z,45.78
2018-08-30T14:58:31.730Z,44.18
2018-08-30T15:01:00.171Z,45.40
2018-08-30T15:03:29.397Z,44.11
2018-08-30T15:05:58.146Z,44.51
2018-08-30T15:08:26.847Z,44.55
2018-08-30T15:10:55.673Z,45.15
2018-08-30T15:13:24.162Z,45.74
2018-08-30T15:15:52.629Z,45.58
2018-08-30T15:18:23.433Z,45.74
2018-08-30T15:20:52.158Z,45.69
2018-08-30T15:23:21.207Z,45.07
2018-08-30T15:25:49.769Z,45.46
2018-08-30T15:28:18.491Z,44.06
2018-08-30T15:30:47.670Z,43.95
2018-08-30T15:33:16.184Z,42.06
2018-08-30T15:35:44.654Z,41.14
2018-08-30T15:38:13.133Z,41.04
2018-08-30T15:40:41.815Z,41.42
2018-08-30T15:43:10.463Z,41.98
2018-08-30T15:45:39.701Z,42.15
2018-08-30T15:48:08.298Z,41.28
2018-08-30T15:50:36.923Z,39.65
2018-08-30T15:53:05.436Z,40.18
2018-08-30T15:55:34.423Z,39.40
2018-08-30T15:58:03.316Z,39.11
2018-08-30T16:00:32.358Z,39.07
2018-08-30T16:03:01.223Z,39.74
2018-08-30T16:05:29.768Z,40.17
2018-08-30T16:07:58.822Z,39.28
2018-08-30T16:10:27.281Z,39.76
2018-08-30T16:12:56.325Z,39.77
2018-08-30T16:15:24.806Z,38.97
2018-08-30T16:17:53.283Z,38.79
2018-08-30T16:20:21.823Z,38.09
2018-08-30T16:23:09.351Z,37.98
2018-08-30T16:25:38.022Z,37.96
2018-08-30T16:28:07.511Z,37.38
2018-08-30T16:30:37.300Z,37.98
2018-08-30T16:33:05.710Z,37.25
2018-08-30T16:35:35.095Z,38.11
2018-08-30T16:38:04.062Z,37.85
2018-08-30T16:40:32.542Z,37.15
2018-08-30T16:43:01.317Z,37.96
2018-08-30T16:45:29.810Z,36.85
2018-08-30T16:47:58.343Z,36.65
2018-08-30T16:50:27.228Z,37.23
2018-08-30T16:52:55.728Z,36.91
2018-08-30T16:55:25.129Z,36.28
2018-08-30T16:57:53.596Z,36.07
2018-08-30T17:00:22.104Z,36.15
2018-08-30T17:02:51.021Z,36.75
2018-08-30T17:05:19.532Z,37.51
2018-08-30T17:07:49.799Z,37.61
2018-08-30T17:10:18.882Z,37.28
2018-08-30T17:12:47.484Z,37.83
2018-08-30T17:15:16.335Z,37.94
2018-08-30T17:17:45.241Z,38.51
2018-08-30T17:20:24.140Z,38.40
2018-08-30T17:22:52.962Z,38.88
2018-08-30T17:25:21.501Z,39.33
2018-08-30T17:27:50.516Z,38.48
2018-08-30T17:30:19.117Z,39.27
2018-08-30T17:32:47.571Z,40.46
2018-08-30T17:35:16.536Z,39.69
2018-08-30T17:37:45.314Z,40.08
2018-08-30T17:40:14.141Z,40.54
2018-08-30T17:42:42.694Z,40.93
2018-08-30T17:45:11.509Z,40.85
2018-08-30T17:47:41.117Z,41.33
2018-08-30T17:50:10.155Z,41.37
2018-08-30T17:52:39.506Z,41.33
2018-08-30T17:55:08.377Z,41.81
2018-08-30T17:57:36.838Z,41.83
2018-08-30T18:00:06.671Z,42.93
2018-08-30T18:02:35.572Z,43.27
2018-08-30T18:05:05.315Z,42.86
2018-08-30T18:07:34.083Z,43.09
2018-08-30T18:10:03.492Z,43.70
2018-08-30T18:12:35.815Z,43.38
2018-08-30T18:15:04.633Z,44.34
2018-08-30T18:17:33.121Z,44.48
2018-08-30T18:20:02.078Z,44.54
2018-08-30T18:22:30.798Z,44.64
2018-08-30T18:24:59.699Z,44.93
2018-08-30T18:27:29.258Z,45.02
2018-08-30T18:29:58.086Z,44.95
2018-08-30T18:32:26.564Z,44.64
2018-08-30T18:34:55.659Z,44.77
2018-08-30T18:37:24.099Z,45.16
2018-08-30T18:39:53.964Z,45.38
2018-08-30T18:42:22.790Z,45.96
2018-08-30T18:44:52.007Z,46.25
2018-08-30T18:47:21.303Z,46.29
2018-08-30T18:49:51.249Z,47.00
2018-08-30T18:52:20.037Z,47.02
2018-08-30T18:54:48.849Z,46.74
2018-08-30T18:57:17.267Z,47.03
2018-08-30T18:59:46.661Z,47.25
2018-08-30T19:02:15.156Z,47.12
2018-08-30T19:04:45.508Z,47.63
2018-08-30T19:07:13.954Z,47.07
2018-08-30T19:09:42.517Z,47.71
2018-08-30T19:12:11.990Z,47.68
2018-08-30T19:14:40.736Z,48.29
2018-08-30T19:17:14.827Z,48.11
2018-08-30T19:19:44.261Z,47.79
2018-08-30T19:22:13.097Z,48.60
2018-08-30T19:24:46.924Z,48.24
2018-08-30T19:27:16.163Z,48.50
2018-08-30T19:29:50.577Z,49.14
2018-08-30T19:32:25.535Z,48.88
2018-08-30T19:34:54.042Z,49.37
2018-08-30T19:37:23.111Z,48.94
2018-08-30T19:39:51.622Z,49.44
2018-08-30T19:42:21.732Z,49.47
2018-08-30T19:44:50.183Z,49.25
2018-08-30T19:47:19.007Z,49.80
2018-08-30T19:49:47.448Z,49.96
2018-08-30T19:52:16.741Z,49.49
2018-08-30T19:54:45.737Z,50.09
2018-08-30T19:57:14.132Z,50.15
2018-08-30T19:59:44.090Z,50.32
2018-08-30T20:02:13.046Z,50.41
2018-08-30T20:04:41.727Z,51.14
2018-08-30T20:07:10.253Z,50.91
2018-08-30T20:09:40.039Z,50.63
2018-08-30T20:12:08.734Z,51.04
2018-08-30T20:14:37.535Z,51.68
2018-08-30T20:17:06.276Z,51.66
2018-08-30T20:19:34.960Z,51.71
2018-08-30T20:22:06.256Z,52.00
2018-08-30T20:24:35.319Z,52.22
2018-08-30T20:27:03.804Z,52.39
2018-08-30T20:29:32.620Z,52.27
2018-08-30T20:32:02.982Z,53.13
2018-08-30T20:34:31.517Z,53.78
2018-08-30T20:37:00.790Z,53.53
2018-08-30T20:39:29.815Z,54.58
2018-08-30T20:41:58.463Z,54.74
2018-08-30T20:44:30.365Z,54.03
2018-08-30T20:46:58.852Z,53.64
2018-08-30T20:49:27.426Z,54.81
2018-08-30T20:51:55.916Z,54.45
2018-08-30T20:54:24.632Z,55.06
2018-08-30T20:56:57.466Z,55.93
2018-08-30T20:59:26.418Z,55.74
2018-08-30T21:01:55.268Z,56.39
2018-08-30T21:04:24.289Z,56.79
2018-08-30T21:06:56.465Z,56.77
2018-08-30T21:09:24.921Z,56.41
2018-08-30T21:11:53.493Z,57.03
2018-08-30T21:14:23.529Z,56.97
2018-08-30T21:16:52.990Z,57.28
2018-08-30T21:19:22.028Z,56.97
2018-08-30T21:21:51.744Z,58.22
2018-08-30T21:24:20.437Z,57.68
2018-08-30T21:26:49.258Z,57.89
2018-08-30T21:29:18.123Z,57.91
2018-08-30T21:31:46.603Z,58.01
2018-08-30T21:34:15.546Z,58.42
2018-08-30T21:36:44.342Z,58.25
2018-08-30T21:39:12.814Z,57.87
2018-08-30T21:41:42.425Z,59.06
2018-08-30T21:44:10.893Z,58.61
2018-08-30T21:46:39.574Z,58.89
2018-08-30T21:49:08.125Z,59.35
2018-08-30T21:51:38.304Z,59.00
2018-08-30T21:54:06.873Z,59.97
2018-08-30T21:56:35.346Z,59.55
2018-08-30T21:59:04.477Z,60.48
2018-08-30T22:01:34.332Z,60.08
2018-08-30T22:04:04.933Z,60.02
2018-08-30T22:06:33.399Z,59.85
2018-08-30T22:09:03.609Z,60.59
2018-08-30T22:11:32.472Z,60.25
2018-08-30T22:14:02.145Z,60.43
2018-08-30T22:16:31.167Z,60.53
2018-08-30T22:18:59.817Z,60.19
2018-08-30T22:21:29.757Z,60.44
2018-08-30T22:23:58.475Z,60.55
2018-08-30T22:26:26.971Z,60.65
2018-08-30T22:28:56.666Z,60.06
2018-08-30T22:31:25.909Z,60.42
2018-08-30T22:33:54.402Z,61.06
2018-08-30T22:36:23.546Z,61.35
2018-08-30T22:38:52.629Z,61.58
2018-08-30T22:41:22.090Z,61.94
2018-08-30T22:43:50.574Z,61.90
2018-08-30T22:46:20.136Z,62.27
2018-08-30T22:48:49.243Z,61.81
2018-08-30T22:51:18.603Z,63.07
2018-08-30T22:53:48.119Z,63.17
2018-08-30T22:56:17.305Z,63.56
2018-08-30T22:58:46.838Z,63.74
2018-08-30T23:01:17.924Z,65.00
2018-08-30T23:03:46.424Z,65.15
2018-08-30T23:06:15.129Z,65.59
2018-08-30T23:08:43.620Z,66.01
2018-08-30T23:11:12.087Z,66.46
2018-08-30T23:13:40.543Z,66.36
2018-08-30T23:16:09.048Z,66.54
2018-08-30T23:18:37.538Z,67.37
2018-08-30T23:21:07.007Z,67.34
2018-08-30T23:23:36.384Z,66.97
2018-08-30T23:26:04.978Z,67.28
2018-08-30T23:28:33.471Z,67.89
2018-08-30T23:31:01.947Z,67.96
2018-08-30T23:33:30.417Z,67.91
2018-08-30T23:35:58.864Z,67.94
2018-08-30T23:38:27.368Z,67.98
2018-08-30T23:40:56.060Z,67.53
2018-08-30T23:43:24.553Z,67.74
2018-08-30T23:45:54.659Z,67.75
2018-08-30T23:48:24.292Z,67.59
2018-08-30T23:50:53.186Z,68.40
2018-08-30T23:53:22.935Z,68.86
2018-08-30T23:55:52.409Z,68.18
2018-08-30T23:58:32.312Z,68.05
